Terminal Aerodrome Forecast
Issued by NWS

Home | Current Version | Previous Version | Text Only | Print | Product List | Glossary On
Versions: 1 2 3 4 5 6 7 8 9 10 11 12 13 14 15 16 17 18 19 20 21 22 23 24 25 26 27
000
FTPA31 PHFO 262300
TAFOGG
TAF
PHOG 262321Z 2700/2724 05015G21KT P6SM VCSH SCT030 BKN050
     FM270700 05012KT P6SM VCSH SCT030 BKN050
     FM271900 05018G21KT P6SM FEW030 SCT050
      AMD LTD TO WX VIS AND WIND 2709/2716=

USA.gov is the U.S. government's official web portal to all federal, state and local government web resources and services.